Sea Wolf — WDD9887 — position and weather

sailwx.info

Track history (hours):
 
Tides and Currents Weather Stations Pressure Air Temp Water Temp Dewpoint Dewpoint Depression Visibility Wind Speed Wind Dir Waves Ship Positions

Sea Wolf

Owner: GARBOR BROS INC, MORGAN CITY, LA. More information available from US FCC via Universal Licensing System and Coast Guard Vessel Documentation Center.

Last reported at 2018-Feb-18 04:26 UTC. Time now 2018-Feb-18 04:59 UTC.
Position N 29°37' W 095°01'.

Length 26 m.

Type: Towing. MMSI: 367317630.

Date/timePositionNaut miles runAvg speedWind from/ knotsBaromVisibWave heightAir tempDewpointWater temp
2018-Feb-18 04:26N 29°37' W 095°01'0 0.0
2018-Feb-18 04:00N 29°37' W 095°01'0 0.0
2018-Feb-18 01:14N 29°37' W 095°01'0 0.0
2018-Feb-18 00:58N 29°37' W 095°01'0 0.0
2018-Feb-18 00:30N 29°37' W 095°01'0 0.0
2018-Feb-18 00:00N 29°37' W 095°01'3 6.0
2018-Feb-17 23:30N 29°37' W 094°57'0 0.1
2018-Feb-17 23:00N 29°37' W 094°57'0 0.2
2018-Feb-17 22:30N 29°37' W 094°57'1 2.2
2018-Feb-17 22:00N 29°38' W 094°58'1 2.1
2018-Feb-17 21:30N 29°37' W 094°57'0 0.0
2018-Feb-17 21:00N 29°37' W 094°57'0 0.0
2018-Feb-17 20:27N 29°37' W 094°57'0 0.0
2018-Feb-17 19:53N 29°37' W 094°57'0 1.2
2018-Feb-17 19:30N 29°37' W 094°58'0 0.6
2018-Feb-17 19:00N 29°37' W 094°58'0 0.2
2018-Feb-17 18:30N 29°37' W 094°58'1 1.6
2018-Feb-17 18:00N 29°37' W 094°57'0 0.1
2018-Feb-17 17:30N 29°37' W 094°57'0 0.5
2018-Feb-17 17:00N 29°37' W 094°58'1 1.1
2018-Feb-17 16:29N 29°37' W 094°58'0 0.0
2018-Feb-17 16:00N 29°37' W 094°58'0 0.0
2018-Feb-17 15:30N 29°37' W 094°58'0 0.0
2018-Feb-17 15:00N 29°37' W 094°58'0 0.0
2018-Feb-17 14:30N 29°37' W 094°58'0 0.4
2018-Feb-17 14:00N 29°37' W 094°58'1 0.2
2018-Feb-17 11:26N 29°37' W 094°57'3 6.5
2018-Feb-17 10:59N 29°37' W 095°01'0 0.0
2018-Feb-17 10:30N 29°37' W 095°01'0 0.0
2018-Feb-17 10:00N 29°37' W 095°01'0 0.0
2018-Feb-17 09:30N 29°37' W 095°01'0 0.0
2018-Feb-17 08:58N 29°37' W 095°01'0 0.0
2018-Feb-17 08:30N 29°37' W 095°01'0 0.0
2018-Feb-17 08:00N 29°37' W 095°01'0 0.0
2018-Feb-17 07:30N 29°37' W 095°01'0 0.0
2018-Feb-17 07:00N 29°37' W 095°01'0 0.0
2018-Feb-17 06:30N 29°37' W 095°01'0 0.0
2018-Feb-17 06:00N 29°37' W 095°01'0 0.0
2018-Feb-17 05:30N 29°37' W 095°01'0 0.0
2018-Feb-17 05:00N 29°37' W 095°01'0 0.0
2018-Feb-17 04:29N 29°37' W 095°01'0 0.0
2018-Feb-17 04:00N 29°37' W 095°01'2 4.6
2018-Feb-17 03:30N 29°37' W 094°58'0 0.0
2018-Feb-17 03:00N 29°37' W 094°58'0 0.0
2018-Feb-17 02:30N 29°37' W 094°58'0 0.0
2018-Feb-17 02:00N 29°37' W 094°58'0 0.0
2018-Feb-17 01:30N 29°37' W 094°58'0 0.0
2018-Feb-17 01:00N 29°37' W 094°58'2 3.0
2018-Feb-17 00:30N 29°37' W 095°00'3 6.0
2018-Feb-17 00:00N 29°37' W 094°57'0 0.1
2018-Feb-16 23:30N 29°37' W 094°56'0 0.1
2018-Feb-16 23:00N 29°37' W 094°56'1 2.0
2018-Feb-16 22:29N 29°37' W 094°58'1 1.1
2018-Feb-16 22:00N 29°37' W 094°57'1 1.2
2018-Feb-16 21:24N 29°37' W 094°56'0 0.6
2018-Feb-16 20:53N 29°37' W 094°56'0 0.4
2018-Feb-16 20:30N 29°37' W 094°56'0 0.1
2018-Feb-16 19:49N 29°37' W 094°56'0 0.2
2018-Feb-16 19:30N 29°37' W 094°56'1 2.7
2018-Feb-16 19:00N 29°37' W 094°58'0 0.9
2018-Feb-16 18:30N 29°37' W 094°58'1 1.6
2018-Feb-16 18:00N 29°37' W 094°57'0 0.0
2018-Feb-16 17:30N 29°37' W 094°57'1 1.6
2018-Feb-16 17:00N 29°37' W 094°58'2 3.5
2018-Feb-16 16:22N 29°37' W 095°01'0 0.0
2018-Feb-16 15:49N 29°37' W 095°01'0 0.1
2018-Feb-16 15:30N 29°37' W 095°01'0 0.1
2018-Feb-16 14:59N 29°37' W 095°01'0 0.0
2018-Feb-16 14:29N 29°37' W 095°01'0 0.0
2018-Feb-16 14:00N 29°37' W 095°01'0 0.1
2018-Feb-16 12:52N 29°37' W 095°01'3 1.8
2018-Feb-16 11:30N 29°37' W 094°58'3 0.7
2018-Feb-16 07:31N 29°37' W 095°01'0 0.0
2018-Feb-16 07:29N 29°37' W 095°01'0 0.0
2018-Feb-16 06:54N 29°37' W 095°01'0 0.0
2018-Feb-16 06:30N 29°37' W 095°01'0 0.0
2018-Feb-16 03:26N 29°37' W 095°01'0 0.0
2018-Feb-16 01:46N 29°37' W 095°01'0 0.9
2018-Feb-16 01:30N 29°37' W 095°01'0 0.3
2018-Feb-16 00:41N 29°37' W 095°01'0 0.1
2018-Feb-16 00:30N 29°37' W 095°01'3 0.6
2018-Feb-15 19:35N 29°37' W 094°57'0 0.0
2018-Feb-15 19:29N 29°37' W 094°57'1 2.0
2018-Feb-15 18:55N 29°37' W 094°56'1 1.6
2018-Feb-15 18:20N 29°37' W 094°57'0 1.2
2018-Feb-15 17:59N 29°37' W 094°58'0 0.2
2018-Feb-15 17:30N 29°37' W 094°57'0 0.2
2018-Feb-15 16:57N 29°37' W 094°58'1 1.4
2018-Feb-15 16:29N 29°37' W 094°58'0 0.0
2018-Feb-15 16:00N 29°37' W 094°58'0 0.0
2018-Feb-15 15:26N 29°37' W 094°58'0 0.0
2018-Feb-15 15:00N 29°37' W 094°58'0 0.6
2018-Feb-15 14:30N 29°37' W 094°58'0 0.8
2018-Feb-15 14:00N 29°37' W 094°58'0 0.0
2018-Feb-15 13:29N 29°37' W 094°58'0 0.0
2018-Feb-15 13:00N 29°37' W 094°58'0 0.4
2018-Feb-15 12:30N 29°37' W 094°58'0 0.3
2018-Feb-15 11:57N 29°37' W 094°58'2 5.0
2018-Feb-15 11:30N 29°37' W 095°00'2 3.8
2018-Feb-15 11:00N 29°37' W 094°58'0 0.0
2018-Feb-15 10:30N 29°37' W 094°58'0 0.0
2018-Feb-15 09:22N 29°37' W 094°58'0 0.0
2018-Feb-15 09:00N 29°37' W 094°58'0 0.0
2018-Feb-15 08:28N 29°37' W 094°58'0 0.0
2018-Feb-15 07:35N 29°37' W 094°58'0 0.0
2018-Feb-15 07:30N 29°37' W 094°58'0 0.0
2018-Feb-15 06:59N 29°37' W 094°58'0 0.0
2018-Feb-15 06:28N 29°37' W 094°58'0 0.0
2018-Feb-15 05:59N 29°37' W 094°58'0 0.0
2018-Feb-15 05:29N 29°37' W 094°58'0 0.1
2018-Feb-15 05:00N 29°37' W 094°58'0 0.2
2018-Feb-15 04:28N 29°37' W 094°58'0 0.3
2018-Feb-15 03:57N 29°37' W 094°58'0 0.0
2018-Feb-15 03:30N 29°37' W 094°58'0 0.0
2018-Feb-15 02:59N 29°37' W 094°58'0 0.0
2018-Feb-15 02:30N 29°37' W 094°58'0 0.0
2018-Feb-15 01:57N 29°37' W 094°58'0 0.0
2018-Feb-15 01:30N 29°37' W 094°58'2 3.5
2018-Feb-15 01:00N 29°37' W 095°00'0 0.2
2018-Feb-15 00:31N 29°37' W 095°00'2 3.0
2018-Feb-14 23:57N 29°37' W 094°58'0 0.1
2018-Feb-14 23:29N 29°37' W 094°58'0 0.0
2018-Feb-14 22:57N 29°37' W 094°58'0 0.0
2018-Feb-14 22:18N 29°37' W 094°58'0 0.0
2018-Feb-14 21:59N 29°37' W 094°58'0 0.0
2018-Feb-14 21:30N 29°37' W 094°58'1 0.9
2018-Feb-14 20:54N 29°37' W 094°58'0 0.8
2018-Feb-14 20:20N 29°37' W 094°58'1 2.0
2018-Feb-14 20:00N 29°37' W 094°58'1 1.4
2018-Feb-14 19:28N 29°37' W 094°58'0 0.0
2018-Feb-14 18:37N 29°37' W 094°58'0 0.1
2018-Feb-14 18:30N 29°37' W 094°58'1 1.2
2018-Feb-14 18:00N 29°37' W 094°58'0 0.1
2018-Feb-14 17:29N 29°37' W 094°58'1 1.1
2018-Feb-14 17:00N 29°37' W 094°58'1 1.2
2018-Feb-14 16:30N 29°37' W 094°58'0 0.7
2018-Feb-14 15:49N 29°37' W 094°58'0 1.1
2018-Feb-14 15:26N 29°37' W 094°58'0 0.0
2018-Feb-14 14:03N 29°37' W 094°58'0 0.0
2018-Feb-14 13:41N 29°37' W 094°58'3 1.4
2018-Feb-14 11:39N 29°37' W 095°01'1 4.8
2018-Feb-14 11:30N 29°37' W 095°00'2 0.6
2018-Feb-14 08:14N 29°37' W 094°58'0 0.0
2018-Feb-14 07:53N 29°37' W 094°58'0 0.0
2018-Feb-14 07:08N 29°37' W 094°58'0 0.0
2018-Feb-14 06:42N 29°37' W 094°58'0 0.0
2018-Feb-14 06:09N 29°37' W 094°58'0 0.1
2018-Feb-14 05:58N 29°37' W 094°58'0 0.2
2018-Feb-14 05:30N 29°37' W 094°58'1 1.6
2018-Feb-14 04:47N 29°37' W 094°56'0 0.0
2018-Feb-14 04:18N 29°37' W 094°56'0 0.0
2018-Feb-14 02:47N 29°37' W 094°56'0 0.0
2018-Feb-14 00:29N 29°37' W 094°56'0 0.0
2018-Feb-13 22:21N 29°37' W 094°56'0 0.0
2018-Feb-13 18:55N 29°37' W 094°56'0 0.0
2018-Feb-13 17:29N 29°37' W 094°56'0 0.0
2018-Feb-13 16:50N 29°37' W 094°56'0 0.0
2018-Feb-13 14:42N 29°37' W 094°56'0 0.0
2018-Feb-13 14:30N 29°37' W 094°56'0 0.0
2018-Feb-13 13:47N 29°37' W 094°56'0 0.0
2018-Feb-13 00:14N 29°37' W 094°56'0 0.0
2018-Feb-12 22:53N 29°37' W 094°56'0 0.1
2018-Feb-12 22:27N 29°37' W 094°56'0 0.0
2018-Feb-12 21:57N 29°37' W 094°56'0 0.0
2018-Feb-12 21:29N 29°37' W 094°56'0 0.0
2018-Feb-12 21:00N 29°37' W 094°56'0 0.0
2018-Feb-12 18:40N 29°37' W 094°56'0 0.0
2018-Feb-12 18:28N 29°37' W 094°56'0 0.0
2018-Feb-12 18:00N 29°37' W 094°56'0 0.1
2018-Feb-12 16:40N 29°37' W 094°56'1 2.4
2018-Feb-12 16:24N 29°37' W 094°57'1 2.9
2018-Feb-12 15:59N 29°37' W 094°58'0 0.0
2018-Feb-12 14:25N 29°37' W 094°58'0 0.0
2018-Feb-12 13:59N 29°37' W 094°58'0 0.1
2018-Feb-12 13:30N 29°37' W 094°58'0 0.0
2018-Feb-12 13:00N 29°37' W 094°58'0 0.0
2018-Feb-12 12:30N 29°37' W 094°58'0 0.0
2018-Feb-12 12:00N 29°37' W 094°58'0 0.0
2018-Feb-12 11:30N 29°37' W 094°58'0 0.0
2018-Feb-12 10:59N 29°37' W 094°58'0 0.0
2018-Feb-12 10:30N 29°37' W 094°58'0 0.0
2018-Feb-12 10:00N 29°37' W 094°58'0 0.0
2018-Feb-12 09:30N 29°37' W 094°58'7 0.8
2018-Feb-12 01:25N 29°43' W 095°01'3 7.1
2018-Feb-12 01:00N 29°41' W 094°59'4 8.1
2018-Feb-12 00:30N 29°37' W 094°58'3 5.2
2018-Feb-11 23:58N 29°37' W 095°01'1 1.2
2018-Feb-11 23:30N 29°37' W 095°00'4 1.8
2018-Feb-11 21:34N 29°37' W 094°56'0 0.4
2018-Feb-11 21:23N 29°37' W 094°56'3 3.0
2018-Feb-11 20:14N 29°40' W 094°58'0 0.0
2018-Feb-11 19:57N 29°40' W 094°58'0 0.3
2018-Feb-11 19:30N 29°40' W 094°58'0 0.4
2018-Feb-11 18:37N 29°40' W 094°58'0 0.4
2018-Feb-11 18:23N 29°40' W 094°58'0 0.6
2018-Feb-11 17:57N 29°40' W 094°58'0 0.0
2018-Feb-11 17:30N 29°40' W 094°58'0 0.2
2018-Feb-11 17:00N 29°40' W 094°58'0 0.0
2018-Feb-11 16:30N 29°40' W 094°58'0 0.0
2018-Feb-11 16:00N 29°40' W 094°58'0 0.0
2018-Feb-11 15:30N 29°40' W 094°58'0 0.0
2018-Feb-11 15:00N 29°40' W 094°58'0 0.2
2018-Feb-11 14:30N 29°40' W 094°58'0 0.0
2018-Feb-11 14:00N 29°40' W 094°58'0 0.0
2018-Feb-11 13:30N 29°40' W 094°58'3 5.2
2018-Feb-11 12:58N 29°37' W 094°57'1 1.5
2018-Feb-11 12:28N 29°37' W 094°58'0 0.0
2018-Feb-11 12:00N 29°37' W 094°58'0 0.0
2018-Feb-11 11:30N 29°37' W 094°58'0 0.0
2018-Feb-11 11:00N 29°37' W 094°58'0 0.0
2018-Feb-11 10:27N 29°37' W 094°58'0 0.0
2018-Feb-11 10:00N 29°37' W 094°58'0 0.0
2018-Feb-11 09:30N 29°37' W 094°58'0 0.0
2018-Feb-11 09:00N 29°37' W 094°58'0 0.0
2018-Feb-11 08:30N 29°37' W 094°58'0 0.0
2018-Feb-11 08:00N 29°37' W 094°58'0 0.0
2018-Feb-11 07:28N 29°37' W 094°58'0 0.0
2018-Feb-11 07:00N 29°37' W 094°58'0 0.0
2018-Feb-11 06:30N 29°37' W 094°58'0 0.0
2018-Feb-11 06:00N 29°37' W 094°58'0 0.0
2018-Feb-11 05:30N 29°37' W 094°58'0 0.0
2018-Feb-11 05:00N 29°37' W 094°58'0 0.0
2018-Feb-11 04:29N 29°37' W 094°58'0 0.0
2018-Feb-11 04:00N 29°37' W 094°58'0 0.0
2018-Feb-11 03:30N 29°37' W 094°58'0 0.0
2018-Feb-11 02:59N 29°37' W 094°58'0 0.0
2018-Feb-11 02:30N 29°37' W 094°58'0 0.0
2018-Feb-11 01:35N 29°37' W 094°58'0 0.1
2018-Feb-11 01:30N 29°37' W 094°58'0 0.0
2018-Feb-11 01:00N 29°37' W 094°58'0 0.0
2018-Feb-11 00:30N 29°37' W 094°58'0 0.0
2018-Feb-11 00:00N 29°37' W 094°58'0 0.0
2018-Feb-10 23:30N 29°37' W 094°58'0 0.0
2018-Feb-10 23:00N 29°37' W 094°58'0 0.0
2018-Feb-10 22:30N 29°37' W 094°58'0 0.0
2018-Feb-10 22:00N 29°37' W 094°58'0 0.0
2018-Feb-10 21:25N 29°37' W 094°58'0 0.1
2018-Feb-10 21:00N 29°37' W 094°58'0 0.0
2018-Feb-10 20:26N 29°37' W 094°58'0 0.6
2018-Feb-10 20:00N 29°37' W 094°58'1 2.4
2018-Feb-10 19:25N 29°37' W 094°56'0 0.1
2018-Feb-10 18:57N 29°37' W 094°56'4 2.3
2018-Feb-10 17:25N 29°40' W 094°58'0 0.1
2018-Feb-10 17:00N 29°40' W 094°58'0 0.2
2018-Feb-10 16:30N 29°40' W 094°58'0 0.0
2018-Feb-10 16:00N 29°40' W 094°58'2 4.3
2018-Feb-10 15:30N 29°38' W 094°58'1 2.0
2018-Feb-10 14:56N 29°37' W 094°58'1 0.7
2018-Feb-10 14:01N 29°37' W 094°58'0 0.0
2018-Feb-10 14:00N 29°37' W 094°58'0 0.1
2018-Feb-10 13:20N 29°37' W 094°58'0 0.1
2018-Feb-10 12:33N 29°37' W 094°58'0 4.2
2018-Feb-10 12:30N 29°37' W 094°58'0 0.4
2018-Feb-10 12:00N 29°37' W 094°58'0 0.0
2018-Feb-10 11:30N 29°37' W 094°58'0 0.0
2018-Feb-10 11:00N 29°37' W 094°58'0 0.0
2018-Feb-10 10:30N 29°37' W 094°58'0 0.0
2018-Feb-10 10:00N 29°37' W 094°58'0 0.0
2018-Feb-10 09:30N 29°37' W 094°58'0 0.0
2018-Feb-10 09:00N 29°37' W 094°58'0 0.0
2018-Feb-10 08:30N 29°37' W 094°58'0 0.0
2018-Feb-10 08:00N 29°37' W 094°58'0 0.0
2018-Feb-10 07:30N 29°37' W 094°58'0 0.0
2018-Feb-10 07:00N 29°37' W 094°58'0 0.0
2018-Feb-10 06:30N 29°37' W 094°58'0 0.0
2018-Feb-10 06:00N 29°37' W 094°58'0 0.0
2018-Feb-10 05:30N 29°37' W 094°58'0 0.0
2018-Feb-10 05:00N 29°37' W 094°58'0 0.0
2018-Feb-10 04:30N 29°37' W 094°58'0 0.0
2018-Feb-10 04:00N 29°37' W 094°58'0 0.0
2018-Feb-10 03:30N 29°37' W 094°58'0 0.0
2018-Feb-10 03:00N 29°37' W 094°58'0 0.0
2018-Feb-10 02:30N 29°37' W 094°58'0 0.0
2018-Feb-10 02:00N 29°37' W 094°58'0 0.0
2018-Feb-10 01:30N 29°37' W 094°58'0 0.0
2018-Feb-10 01:00N 29°37' W 094°58'0 0.0
2018-Feb-10 00:30N 29°37' W 094°58'0 0.0
2018-Feb-10 00:00N 29°37' W 094°58'0 0.0
2018-Feb-09 23:30N 29°37' W 094°58'0 0.0
2018-Feb-09 14:00N 29°37' W 094°58'0 0.0
2018-Feb-09 08:01N 29°37' W 094°58'2 0.2
2018-Feb-08 18:30N 29°37' W 095°01'0 0.0
2018-Feb-08 16:30N 29°37' W 095°01'1 0.2
2018-Feb-08 13:30N 29°37' W 095°00'1 0.1
2018-Feb-08 06:00N 29°37' W 095°01'  
Track history (hours):
 
Tides and Currents Weather Stations Pressure Air Temp Water Temp Dewpoint Dewpoint Depression Visibility Wind Speed Wind Dir Waves Ship Positions

Sea Wolf

Owner: GARBOR BROS INC, MORGAN CITY, LA. More information available from US FCC via Universal Licensing System and Coast Guard Vessel Documentation Center.

Last reported at 2018-Feb-18 04:26 UTC. Time now 2018-Feb-18 04:59 UTC.
Position N 29°37' W 095°01'.

Length 26 m.

Type: Towing. MMSI: 367317630.

Date/timePositionNaut miles runAvg speedWind from/ knotsBaromVisibWave heightAir tempDewpointWater temp
2018-Feb-18 04:26N 29°37' W 095°01'0 0.0
2018-Feb-18 04:00N 29°37' W 095°01'0 0.0
2018-Feb-18 01:14N 29°37' W 095°01'0 0.0
2018-Feb-18 00:58N 29°37' W 095°01'0 0.0
2018-Feb-18 00:30N 29°37' W 095°01'0 0.0
2018-Feb-18 00:00N 29°37' W 095°01'3 6.0
2018-Feb-17 23:30N 29°37' W 094°57'0 0.1
2018-Feb-17 23:00N 29°37' W 094°57'0 0.2
2018-Feb-17 22:30N 29°37' W 094°57'1 2.2
2018-Feb-17 22:00N 29°38' W 094°58'1 2.1
2018-Feb-17 21:30N 29°37' W 094°57'0 0.0
2018-Feb-17 21:00N 29°37' W 094°57'0 0.0
2018-Feb-17 20:27N 29°37' W 094°57'0 0.0
2018-Feb-17 19:53N 29°37' W 094°57'0 1.2
2018-Feb-17 19:30N 29°37' W 094°58'0 0.6
2018-Feb-17 19:00N 29°37' W 094°58'0 0.2
2018-Feb-17 18:30N 29°37' W 094°58'1 1.6
2018-Feb-17 18:00N 29°37' W 094°57'0 0.1
2018-Feb-17 17:30N 29°37' W 094°57'0 0.5
2018-Feb-17 17:00N 29°37' W 094°58'1 1.1
2018-Feb-17 16:29N 29°37' W 094°58'0 0.0
2018-Feb-17 16:00N 29°37' W 094°58'0 0.0
2018-Feb-17 15:30N 29°37' W 094°58'0 0.0
2018-Feb-17 15:00N 29°37' W 094°58'0 0.0
2018-Feb-17 14:30N 29°37' W 094°58'0 0.4
2018-Feb-17 14:00N 29°37' W 094°58'1 0.2
2018-Feb-17 11:26N 29°37' W 094°57'3 6.5
2018-Feb-17 10:59N 29°37' W 095°01'0 0.0
2018-Feb-17 10:30N 29°37' W 095°01'0 0.0
2018-Feb-17 10:00N 29°37' W 095°01'0 0.0
2018-Feb-17 09:30N 29°37' W 095°01'0 0.0
2018-Feb-17 08:58N 29°37' W 095°01'0 0.0
2018-Feb-17 08:30N 29°37' W 095°01'0 0.0
2018-Feb-17 08:00N 29°37' W 095°01'0 0.0
2018-Feb-17 07:30N 29°37' W 095°01'0 0.0
2018-Feb-17 07:00N 29°37' W 095°01'0 0.0
2018-Feb-17 06:30N 29°37' W 095°01'0 0.0
2018-Feb-17 06:00N 29°37' W 095°01'0 0.0
2018-Feb-17 05:30N 29°37' W 095°01'0 0.0
2018-Feb-17 05:00N 29°37' W 095°01'0 0.0
2018-Feb-17 04:29N 29°37' W 095°01'0 0.0
2018-Feb-17 04:00N 29°37' W 095°01'2 4.6
2018-Feb-17 03:30N 29°37' W 094°58'0 0.0
2018-Feb-17 03:00N 29°37' W 094°58'0 0.0
2018-Feb-17 02:30N 29°37' W 094°58'0 0.0
2018-Feb-17 02:00N 29°37' W 094°58'0 0.0
2018-Feb-17 01:30N 29°37' W 094°58'0 0.0
2018-Feb-17 01:00N 29°37' W 094°58'2 3.0
2018-Feb-17 00:30N 29°37' W 095°00'3 6.0
2018-Feb-17 00:00N 29°37' W 094°57'0 0.1
2018-Feb-16 23:30N 29°37' W 094°56'0 0.1
2018-Feb-16 23:00N 29°37' W 094°56'1 2.0
2018-Feb-16 22:29N 29°37' W 094°58'1 1.1
2018-Feb-16 22:00N 29°37' W 094°57'1 1.2
2018-Feb-16 21:24N 29°37' W 094°56'0 0.6
2018-Feb-16 20:53N 29°37' W 094°56'0 0.4
2018-Feb-16 20:30N 29°37' W 094°56'0 0.1
2018-Feb-16 19:49N 29°37' W 094°56'0 0.2
2018-Feb-16 19:30N 29°37' W 094°56'1 2.7
2018-Feb-16 19:00N 29°37' W 094°58'0 0.9
2018-Feb-16 18:30N 29°37' W 094°58'1 1.6
2018-Feb-16 18:00N 29°37' W 094°57'0 0.0
2018-Feb-16 17:30N 29°37' W 094°57'1 1.6
2018-Feb-16 17:00N 29°37' W 094°58'2 3.5
2018-Feb-16 16:22N 29°37' W 095°01'0 0.0
2018-Feb-16 15:49N 29°37' W 095°01'0 0.1
2018-Feb-16 15:30N 29°37' W 095°01'0 0.1
2018-Feb-16 14:59N 29°37' W 095°01'0 0.0
2018-Feb-16 14:29N 29°37' W 095°01'0 0.0
2018-Feb-16 14:00N 29°37' W 095°01'0 0.1
2018-Feb-16 12:52N 29°37' W 095°01'3 1.8
2018-Feb-16 11:30N 29°37' W 094°58'3 0.7
2018-Feb-16 07:31N 29°37' W 095°01'0 0.0
2018-Feb-16 07:29N 29°37' W 095°01'0 0.0
2018-Feb-16 06:54N 29°37' W 095°01'0 0.0
2018-Feb-16 06:30N 29°37' W 095°01'0 0.0
2018-Feb-16 03:26N 29°37' W 095°01'0 0.0
2018-Feb-16 01:46N 29°37' W 095°01'0 0.9
2018-Feb-16 01:30N 29°37' W 095°01'0 0.3
2018-Feb-16 00:41N 29°37' W 095°01'0 0.1
2018-Feb-16 00:30N 29°37' W 095°01'3 0.6
2018-Feb-15 19:35N 29°37' W 094°57'0 0.0
2018-Feb-15 19:29N 29°37' W 094°57'1 2.0
2018-Feb-15 18:55N 29°37' W 094°56'1 1.6
2018-Feb-15 18:20N 29°37' W 094°57'0 1.2
2018-Feb-15 17:59N 29°37' W 094°58'0 0.2
2018-Feb-15 17:30N 29°37' W 094°57'0 0.2
2018-Feb-15 16:57N 29°37' W 094°58'1 1.4
2018-Feb-15 16:29N 29°37' W 094°58'0 0.0
2018-Feb-15 16:00N 29°37' W 094°58'0 0.0
2018-Feb-15 15:26N 29°37' W 094°58'0 0.0
2018-Feb-15 15:00N 29°37' W 094°58'0 0.6
2018-Feb-15 14:30N 29°37' W 094°58'0 0.8
2018-Feb-15 14:00N 29°37' W 094°58'0 0.0
2018-Feb-15 13:29N 29°37' W 094°58'0 0.0
2018-Feb-15 13:00N 29°37' W 094°58'0 0.4
2018-Feb-15 12:30N 29°37' W 094°58'0 0.3
2018-Feb-15 11:57N 29°37' W 094°58'2 5.0
2018-Feb-15 11:30N 29°37' W 095°00'2 3.8
2018-Feb-15 11:00N 29°37' W 094°58'0 0.0
2018-Feb-15 10:30N 29°37' W 094°58'0 0.0
2018-Feb-15 09:22N 29°37' W 094°58'0 0.0
2018-Feb-15 09:00N 29°37' W 094°58'0 0.0
2018-Feb-15 08:28N 29°37' W 094°58'0 0.0
2018-Feb-15 07:35N 29°37' W 094°58'0 0.0
2018-Feb-15 07:30N 29°37' W 094°58'0 0.0
2018-Feb-15 06:59N 29°37' W 094°58'0 0.0
2018-Feb-15 06:28N 29°37' W 094°58'0 0.0
2018-Feb-15 05:59N 29°37' W 094°58'0 0.0
2018-Feb-15 05:29N 29°37' W 094°58'0 0.1
2018-Feb-15 05:00N 29°37' W 094°58'0 0.2
2018-Feb-15 04:28N 29°37' W 094°58'0 0.3
2018-Feb-15 03:57N 29°37' W 094°58'0 0.0
2018-Feb-15 03:30N 29°37' W 094°58'0 0.0
2018-Feb-15 02:59N 29°37' W 094°58'0 0.0
2018-Feb-15 02:30N 29°37' W 094°58'0 0.0
2018-Feb-15 01:57N 29°37' W 094°58'0 0.0
2018-Feb-15 01:30N 29°37' W 094°58'2 3.5
2018-Feb-15 01:00N 29°37' W 095°00'0 0.2
2018-Feb-15 00:31N 29°37' W 095°00'2 3.0
2018-Feb-14 23:57N 29°37' W 094°58'0 0.1
2018-Feb-14 23:29N 29°37' W 094°58'0 0.0
2018-Feb-14 22:57N 29°37' W 094°58'0 0.0
2018-Feb-14 22:18N 29°37' W 094°58'0 0.0
2018-Feb-14 21:59N 29°37' W 094°58'0 0.0
2018-Feb-14 21:30N 29°37' W 094°58'1 0.9
2018-Feb-14 20:54N 29°37' W 094°58'0 0.8
2018-Feb-14 20:20N 29°37' W 094°58'1 2.0
2018-Feb-14 20:00N 29°37' W 094°58'1 1.4
2018-Feb-14 19:28N 29°37' W 094°58'0 0.0
2018-Feb-14 18:37N 29°37' W 094°58'0 0.1
2018-Feb-14 18:30N 29°37' W 094°58'1 1.2
2018-Feb-14 18:00N 29°37' W 094°58'0 0.1
2018-Feb-14 17:29N 29°37' W 094°58'1 1.1
2018-Feb-14 17:00N 29°37' W 094°58'1 1.2
2018-Feb-14 16:30N 29°37' W 094°58'0 0.7
2018-Feb-14 15:49N 29°37' W 094°58'0 1.1
2018-Feb-14 15:26N 29°37' W 094°58'0 0.0
2018-Feb-14 14:03N 29°37' W 094°58'0 0.0
2018-Feb-14 13:41N 29°37' W 094°58'3 1.4
2018-Feb-14 11:39N 29°37' W 095°01'1 4.8
2018-Feb-14 11:30N 29°37' W 095°00'2 0.6
2018-Feb-14 08:14N 29°37' W 094°58'0 0.0
2018-Feb-14 07:53N 29°37' W 094°58'0 0.0
2018-Feb-14 07:08N 29°37' W 094°58'0 0.0
2018-Feb-14 06:42N 29°37' W 094°58'0 0.0
2018-Feb-14 06:09N 29°37' W 094°58'0 0.1
2018-Feb-14 05:58N 29°37' W 094°58'0 0.2
2018-Feb-14 05:30N 29°37' W 094°58'1 1.6
2018-Feb-14 04:47N 29°37' W 094°56'0 0.0
2018-Feb-14 04:18N 29°37' W 094°56'0 0.0
2018-Feb-14 02:47N 29°37' W 094°56'0 0.0
2018-Feb-14 00:29N 29°37' W 094°56'0 0.0
2018-Feb-13 22:21N 29°37' W 094°56'0 0.0
2018-Feb-13 18:55N 29°37' W 094°56'0 0.0
2018-Feb-13 17:29N 29°37' W 094°56'0 0.0
2018-Feb-13 16:50N 29°37' W 094°56'0 0.0
2018-Feb-13 14:42N 29°37' W 094°56'0 0.0
2018-Feb-13 14:30N 29°37' W 094°56'0 0.0
2018-Feb-13 13:47N 29°37' W 094°56'0 0.0
2018-Feb-13 00:14N 29°37' W 094°56'0 0.0
2018-Feb-12 22:53N 29°37' W 094°56'0 0.1
2018-Feb-12 22:27N 29°37' W 094°56'0 0.0
2018-Feb-12 21:57N 29°37' W 094°56'0 0.0
2018-Feb-12 21:29N 29°37' W 094°56'0 0.0
2018-Feb-12 21:00N 29°37' W 094°56'0 0.0
2018-Feb-12 18:40N 29°37' W 094°56'0 0.0
2018-Feb-12 18:28N 29°37' W 094°56'0 0.0
2018-Feb-12 18:00N 29°37' W 094°56'0 0.1
2018-Feb-12 16:40N 29°37' W 094°56'1 2.4
2018-Feb-12 16:24N 29°37' W 094°57'1 2.9
2018-Feb-12 15:59N 29°37' W 094°58'0 0.0
2018-Feb-12 14:25N 29°37' W 094°58'0 0.0
2018-Feb-12 13:59N 29°37' W 094°58'0 0.1
2018-Feb-12 13:30N 29°37' W 094°58'0 0.0
2018-Feb-12 13:00N 29°37' W 094°58'0 0.0
2018-Feb-12 12:30N 29°37' W 094°58'0 0.0
2018-Feb-12 12:00N 29°37' W 094°58'0 0.0
2018-Feb-12 11:30N 29°37' W 094°58'0 0.0
2018-Feb-12 10:59N 29°37' W 094°58'0 0.0
2018-Feb-12 10:30N 29°37' W 094°58'0 0.0
2018-Feb-12 10:00N 29°37' W 094°58'0 0.0
2018-Feb-12 09:30N 29°37' W 094°58'7 0.8
2018-Feb-12 01:25N 29°43' W 095°01'3 7.1
2018-Feb-12 01:00N 29°41' W 094°59'4 8.1
2018-Feb-12 00:30N 29°37' W 094°58'3 5.2
2018-Feb-11 23:58N 29°37' W 095°01'1 1.2
2018-Feb-11 23:30N 29°37' W 095°00'4 1.8
2018-Feb-11 21:34N 29°37' W 094°56'0 0.4
2018-Feb-11 21:23N 29°37' W 094°56'3 3.0
2018-Feb-11 20:14N 29°40' W 094°58'0 0.0
2018-Feb-11 19:57N 29°40' W 094°58'0 0.3
2018-Feb-11 19:30N 29°40' W 094°58'0 0.4
2018-Feb-11 18:37N 29°40' W 094°58'0 0.4
2018-Feb-11 18:23N 29°40' W 094°58'0 0.6
2018-Feb-11 17:57N 29°40' W 094°58'0 0.0
2018-Feb-11 17:30N 29°40' W 094°58'0 0.2
2018-Feb-11 17:00N 29°40' W 094°58'0 0.0
2018-Feb-11 16:30N 29°40' W 094°58'0 0.0
2018-Feb-11 16:00N 29°40' W 094°58'0 0.0
2018-Feb-11 15:30N 29°40' W 094°58'0 0.0
2018-Feb-11 15:00N 29°40' W 094°58'0 0.2
2018-Feb-11 14:30N 29°40' W 094°58'0 0.0
2018-Feb-11 14:00N 29°40' W 094°58'0 0.0
2018-Feb-11 13:30N 29°40' W 094°58'3 5.2
2018-Feb-11 12:58N 29°37' W 094°57'1 1.5
2018-Feb-11 12:28N 29°37' W 094°58'0 0.0
2018-Feb-11 12:00N 29°37' W 094°58'0 0.0
2018-Feb-11 11:30N 29°37' W 094°58'0 0.0
2018-Feb-11 11:00N 29°37' W 094°58'0 0.0
2018-Feb-11 10:27N 29°37' W 094°58'0 0.0
2018-Feb-11 10:00N 29°37' W 094°58'0 0.0
2018-Feb-11 09:30N 29°37' W 094°58'0 0.0
2018-Feb-11 09:00N 29°37' W 094°58'0 0.0
2018-Feb-11 08:30N 29°37' W 094°58'0 0.0
2018-Feb-11 08:00N 29°37' W 094°58'0 0.0
2018-Feb-11 07:28N 29°37' W 094°58'0 0.0
2018-Feb-11 07:00N 29°37' W 094°58'0 0.0
2018-Feb-11 06:30N 29°37' W 094°58'0 0.0
2018-Feb-11 06:00N 29°37' W 094°58'0 0.0
2018-Feb-11 05:30N 29°37' W 094°58'0 0.0
2018-Feb-11 05:00N 29°37' W 094°58'0 0.0
2018-Feb-11 04:29N 29°37' W 094°58'0 0.0
2018-Feb-11 04:00N 29°37' W 094°58'0 0.0
2018-Feb-11 03:30N 29°37' W 094°58'0 0.0
2018-Feb-11 02:59N 29°37' W 094°58'0 0.0
2018-Feb-11 02:30N 29°37' W 094°58'0 0.0
2018-Feb-11 01:35N 29°37' W 094°58'0 0.1
2018-Feb-11 01:30N 29°37' W 094°58'0 0.0
2018-Feb-11 01:00N 29°37' W 094°58'0 0.0
2018-Feb-11 00:30N 29°37' W 094°58'0 0.0
2018-Feb-11 00:00N 29°37' W 094°58'0 0.0
2018-Feb-10 23:30N 29°37' W 094°58'0 0.0
2018-Feb-10 23:00N 29°37' W 094°58'0 0.0
2018-Feb-10 22:30N 29°37' W 094°58'0 0.0
2018-Feb-10 22:00N 29°37' W 094°58'0 0.0
2018-Feb-10 21:25N 29°37' W 094°58'0 0.1
2018-Feb-10 21:00N 29°37' W 094°58'0 0.0
2018-Feb-10 20:26N 29°37' W 094°58'0 0.6
2018-Feb-10 20:00N 29°37' W 094°58'1 2.4
2018-Feb-10 19:25N 29°37' W 094°56'0 0.1
2018-Feb-10 18:57N 29°37' W 094°56'4 2.3
2018-Feb-10 17:25N 29°40' W 094°58'0 0.1
2018-Feb-10 17:00N 29°40' W 094°58'0 0.2
2018-Feb-10 16:30N 29°40' W 094°58'0 0.0
2018-Feb-10 16:00N 29°40' W 094°58'2 4.3
2018-Feb-10 15:30N 29°38' W 094°58'1 2.0
2018-Feb-10 14:56N 29°37' W 094°58'1 0.7
2018-Feb-10 14:01N 29°37' W 094°58'0 0.0
2018-Feb-10 14:00N 29°37' W 094°58'0 0.1
2018-Feb-10 13:20N 29°37' W 094°58'0 0.1
2018-Feb-10 12:33N 29°37' W 094°58'0 4.2
2018-Feb-10 12:30N 29°37' W 094°58'0 0.4
2018-Feb-10 12:00N 29°37' W 094°58'0 0.0
2018-Feb-10 11:30N 29°37' W 094°58'0 0.0
2018-Feb-10 11:00N 29°37' W 094°58'0 0.0
2018-Feb-10 10:30N 29°37' W 094°58'0 0.0
2018-Feb-10 10:00N 29°37' W 094°58'0 0.0
2018-Feb-10 09:30N 29°37' W 094°58'0 0.0
2018-Feb-10 09:00N 29°37' W 094°58'0 0.0
2018-Feb-10 08:30N 29°37' W 094°58'0 0.0
2018-Feb-10 08:00N 29°37' W 094°58'0 0.0
2018-Feb-10 07:30N 29°37' W 094°58'0 0.0
2018-Feb-10 07:00N 29°37' W 094°58'0 0.0
2018-Feb-10 06:30N 29°37' W 094°58'0 0.0
2018-Feb-10 06:00N 29°37' W 094°58'0 0.0
2018-Feb-10 05:30N 29°37' W 094°58'0 0.0
2018-Feb-10 05:00N 29°37' W 094°58'0 0.0
2018-Feb-10 04:30N 29°37' W 094°58'0 0.0
2018-Feb-10 04:00N 29°37' W 094°58'0 0.0
2018-Feb-10 03:30N 29°37' W 094°58'0 0.0
2018-Feb-10 03:00N 29°37' W 094°58'0 0.0
2018-Feb-10 02:30N 29°37' W 094°58'0 0.0
2018-Feb-10 02:00N 29°37' W 094°58'0 0.0
2018-Feb-10 01:30N 29°37' W 094°58'0 0.0
2018-Feb-10 01:00N 29°37' W 094°58'0 0.0
2018-Feb-10 00:30N 29°37' W 094°58'0 0.0
2018-Feb-10 00:00N 29°37' W 094°58'0 0.0
2018-Feb-09 23:30N 29°37' W 094°58'0 0.0
2018-Feb-09 14:00N 29°37' W 094°58'0 0.0
2018-Feb-09 08:01N 29°37' W 094°58'2 0.2
2018-Feb-08 18:30N 29°37' W 095°01'0 0.0
2018-Feb-08 16:30N 29°37' W 095°01'1 0.2
2018-Feb-08 13:30N 29°37' W 095°00'1 0.1
2018-Feb-08 06:00N 29°37' W 095°01'  

Dump ship's entire track history